Time;durP1;ratioP1;P1;durP2;ratioP2;P2;SDS_P1;SDS_P2;PMS_P1;PMS_P2;Temp;Humidity;BMP_temperature;BMP_pressure;BME280_temperature;BME280_humidity;BME280_pressure;Samples;Min_cycle;Max_cycle;Signal;HPM_P1;HPM_P2
2022/12/11 00:01:47;;;;;;;2.75;2.65;;;5.10;99.90;;;;;;4992017;28;20228;-72
2022/12/11 00:04:14;;;;;;;2.90;2.80;;;5.10;99.90;;;;;;4998287;28;20193;-72
2022/12/11 00:06:41;;;;;;;2.80;2.70;;;5.10;99.90;;;;;;4990279;28;20230;-72
2022/12/11 00:09:09;;;;;;;2.70;2.60;;;5.10;99.90;;;;;;4993174;28;20247;-73
2022/12/11 00:11:36;;;;;;;2.70;2.60;;;5.10;99.90;;;;;;4992993;28;20224;-72
2022/12/11 00:14:03;;;;;;;2.90;2.80;;;5.00;99.90;;;;;;4991988;28;20197;-72
2022/12/11 00:16:30;;;;;;;2.50;2.40;;;5.00;99.90;;;;;;4988529;28;20228;-72
2022/12/11 00:18:59;;;;;;;2.92;2.83;;;5.00;99.90;;;;;;4996749;28;20278;-71
2022/12/11 00:21:26;;;;;;;2.63;2.53;;;4.90;99.90;;;;;;4990901;28;20311;-72
2022/12/11 00:23:54;;;;;;;2.50;2.40;;;5.00;99.90;;;;;;4997275;28;20204;-72
2022/12/11 00:26:22;;;;;;;2.70;2.60;;;5.00;99.90;;;;;;4999881;28;20223;-72
2022/12/11 00:28:53;;;;;;;2.70;2.60;;;4.90;99.90;;;;;;5001277;28;20225;-72
2022/12/11 00:31:21;;;;;;;2.53;2.42;;;4.90;99.90;;;;;;5004596;28;20711;-72
2022/12/11 00:33:49;;;;;;;2.55;2.45;;;4.90;99.90;;;;;;4999085;28;20208;-72
2022/12/11 00:36:21;;;;;;;2.67;2.58;;;4.90;99.90;;;;;;4995534;28;20236;-72
2022/12/11 00:38:49;;;;;;;3.65;2.90;;;4.90;99.90;;;;;;4998941;28;20223;-72
2022/12/11 00:41:17;;;;;;;2.97;2.88;;;4.90;99.90;;;;;;5003428;28;20299;-72
2022/12/11 00:43:44;;;;;;;2.97;2.88;;;5.00;99.90;;;;;;5000032;28;20199;-72
2022/12/11 00:46:11;;;;;;;3.00;2.90;;;5.10;99.90;;;;;;5000483;28;20228;-73
2022/12/11 00:48:39;;;;;;;2.63;2.53;;;5.00;99.90;;;;;;5001708;28;20227;-72
2022/12/11 00:51:08;;;;;;;3.15;2.95;;;5.10;99.90;;;;;;5002669;28;20244;-72
2022/12/11 00:53:36;;;;;;;3.10;3.00;;;5.00;99.90;;;;;;4996682;28;20203;-72
2022/12/11 00:56:11;;;;;;;3.10;3.00;;;5.10;99.90;;;;;;4998414;28;20256;-73
2022/12/11 00:58:39;;;;;;;2.53;2.42;;;5.10;99.90;;;;;;4998450;28;20321;-72
2022/12/11 01:01:08;;;;;;;2.60;2.50;;;5.00;99.90;;;;;;5003077;28;20220;-72
2022/12/11 01:03:35;;;;;;;2.72;2.63;;;5.00;99.90;;;;;;5003658;28;20204;-72
2022/12/11 01:06:03;;;;;;;2.80;2.70;;;5.00;99.90;;;;;;5004058;28;20633;-73
2022/12/11 01:08:31;;;;;;;2.72;2.63;;;5.00;99.90;;;;;;5002703;28;20220;-73
2022/12/11 01:11:06;;;;;;;2.55;2.45;;;5.00;99.90;;;;;;5004960;28;20282;-73
2022/12/11 01:13:33;;;;;;;2.80;2.70;;;5.00;99.90;;;;;;5000273;28;20267;-73
2022/12/11 01:16:05;;;;;;;2.88;2.78;;;5.00;99.90;;;;;;4997333;28;20306;-73
2022/12/11 01:18:33;;;;;;;2.70;2.60;;;5.00;99.90;;;;;;5004134;28;20227;-73
2022/12/11 01:21:00;;;;;;;2.95;2.85;;;5.00;99.90;;;;;;5003341;28;20231;-73
2022/12/11 01:23:27;;;;;;;2.80;2.70;;;5.00;99.90;;;;;;5003070;28;22096;-72
2022/12/11 01:25:54;;;;;;;2.50;2.40;;;5.00;99.90;;;;;;5002356;28;20244;-73
2022/12/11 01:28:23;;;;;;;3.00;2.80;;;5.10;99.90;;;;;;5003709;28;20228;-73
2022/12/11 01:30:51;;;;;;;2.75;2.65;;;5.00;99.90;;;;;;4998101;28;20231;-73
2022/12/11 01:33:18;;;;;;;2.88;2.78;;;5.00;99.90;;;;;;5000725;28;20220;-72
2022/12/11 01:35:45;;;;;;;3.00;2.80;;;5.10;99.90;;;;;;4994279;28;20243;-73
2022/12/11 01:38:12;;;;;;;2.90;2.80;;;5.10;99.90;;;;;;5000421;28;20225;-72
2022/12/11 01:40:46;;;;;;;2.75;2.65;;;5.10;99.90;;;;;;4995934;28;20205;-72
2022/12/11 01:43:14;;;;;;;2.67;2.58;;;5.20;99.90;;;;;;4999699;28;20238;-73
2022/12/11 01:45:45;;;;;;;2.72;2.63;;;5.30;99.90;;;;;;4999008;28;20714;-73
2022/12/11 01:48:16;;;;;;;2.67;2.58;;;5.30;99.90;;;;;;5003713;28;20220;-72
2022/12/11 01:50:49;;;;;;;2.58;2.47;;;5.30;99.90;;;;;;4999635;28;20235;-73
2022/12/11 01:53:20;;;;;;;2.67;2.58;;;5.30;99.90;;;;;;5001118;28;20201;-72
2022/12/11 01:55:51;;;;;;;2.80;2.70;;;5.30;99.90;;;;;;4997331;28;20231;-72
2022/12/11 01:58:20;;;;;;;2.80;2.70;;;5.30;99.90;;;;;;5004151;28;20224;-72
2022/12/11 02:00:52;;;;;;;2.70;2.60;;;5.30;99.90;;;;;;5004110;28;21712;-73
2022/12/11 02:03:20;;;;;;;2.85;2.70;;;5.30;99.90;;;;;;4999153;28;20204;-72
2022/12/11 02:05:47;;;;;;;2.53;2.42;;;5.40;99.90;;;;;;4999389;28;20224;-73
2022/12/11 02:08:15;;;;;;;2.55;2.45;;;5.30;99.90;;;;;;5003321;28;20223;-72
2022/12/11 02:10:49;;;;;;;3.00;2.90;;;5.30;99.90;;;;;;5000630;28;20973;-72
2022/12/11 02:13:23;;;;;;;2.70;2.60;;;5.30;99.90;;;;;;4999518;28;20424;-73
2022/12/11 02:15:57;;;;;;;2.70;2.60;;;5.30;99.90;;;;;;5001798;28;20263;-73
2022/12/11 02:18:31;;;;;;;2.63;2.53;;;5.30;99.90;;;;;;4995365;28;20219;-72
2022/12/11 02:21:03;;;;;;;2.72;2.63;;;5.40;99.90;;;;;;4997042;28;20262;-73
2022/12/11 02:23:59;;;;;;;2.50;2.40;;;5.30;99.90;;;;;;4999811;28;20196;-75
2022/12/11 02:27:00;;;;;;;2.65;2.55;;;5.30;99.90;;;;;;5000525;28;20217;-72
2022/12/11 02:29:35;;;;;;;2.55;2.45;;;5.30;99.90;;;;;;4999218;28;20264;-72
2022/12/11 02:32:06;;;;;;;2.67;2.58;;;5.30;99.90;;;;;;5000943;28;20650;-73
2022/12/11 02:34:40;;;;;;;2.60;2.50;;;5.30;99.90;;;;;;5002993;28;20679;-72
2022/12/11 02:37:12;;;;;;;2.50;2.40;;;5.20;99.90;;;;;;4998738;28;20286;-72
2022/12/11 02:39:41;;;;;;;2.47;2.38;;;5.20;99.90;;;;;;5000063;28;20260;-72
2022/12/11 02:42:11;;;;;;;2.70;2.60;;;5.20;99.90;;;;;;5001855;28;20220;-72
2022/12/11 02:44:41;;;;;;;2.53;2.42;;;5.20;99.90;;;;;;5002459;28;20208;-73
2022/12/11 02:47:12;;;;;;;2.45;2.35;;;5.30;99.90;;;;;;4999698;28;20326;-73
2022/12/11 02:49:42;;;;;;;2.90;2.80;;;5.30;99.90;;;;;;5048395;23;20222;-77
2022/12/11 02:52:12;;;;;;;2.67;2.58;;;5.20;99.90;;;;;;5042064;28;20293;-76
2022/12/11 02:54:41;;;;;;;2.92;2.83;;;5.20;99.90;;;;;;5044162;28;20954;-77
2022/12/11 02:57:15;;;;;;;2.72;2.63;;;5.20;99.90;;;;;;5049751;28;20227;-76
2022/12/11 02:59:46;;;;;;;2.45;2.35;;;5.10;99.90;;;;;;5046395;28;20250;-76
2022/12/11 03:02:15;;;;;;;2.33;2.22;;;5.10;99.90;;;;;;5049461;28;20718;-77
2022/12/11 03:04:43;;;;;;;3.10;2.90;;;5.10;99.90;;;;;;5048629;28;20195;-76
2022/12/11 03:07:15;;;;;;;2.75;2.65;;;5.00;99.90;;;;;;5034172;28;20214;-77
2022/12/11 03:09:48;;;;;;;2.60;2.50;;;5.00;99.90;;;;;;5047297;28;20282;-75
2022/12/11 03:12:19;;;;;;;2.67;2.58;;;5.00;99.90;;;;;;5056360;28;20225;-77
2022/12/11 03:14:49;;;;;;;2.60;2.50;;;4.90;99.90;;;;;;5049056;28;20207;-75
2022/12/11 03:17:19;;;;;;;2.72;2.63;;;4.80;99.90;;;;;;5049561;28;20226;-77
2022/12/11 03:19:53;;;;;;;2.70;2.60;;;4.80;99.90;;;;;;5049213;28;20305;-77
2022/12/11 03:22:24;;;;;;;2.72;2.63;;;4.80;99.90;;;;;;5051934;28;21695;-77
2022/12/11 03:24:58;;;;;;;2.90;2.80;;;4.80;99.90;;;;;;5053508;28;20213;-75
2022/12/11 03:27:33;;;;;;;2.47;2.38;;;4.70;99.90;;;;;;5046878;28;20285;-77
2022/12/11 03:30:06;;;;;;;2.45;2.35;;;4.60;99.90;;;;;;5047911;28;20856;-75
2022/12/11 03:32:39;;;;;;;2.50;2.40;;;4.60;99.90;;;;;;5050811;28;20219;-76
2022/12/11 03:35:12;;;;;;;2.33;2.22;;;4.60;99.90;;;;;;5053519;28;20269;-77
2022/12/11 03:37:42;;;;;;;2.45;2.35;;;4.60;99.90;;;;;;5046861;28;20567;-75
2022/12/11 03:40:14;;;;;;;2.45;2.35;;;4.60;99.90;;;;;;5050791;28;20238;-76
2022/12/11 03:42:44;;;;;;;2.33;2.22;;;4.60;99.90;;;;;;5049910;28;20215;-76
2022/12/11 03:45:14;;;;;;;2.45;2.35;;;4.50;99.90;;;;;;5048567;28;20211;-77
2022/12/11 03:47:43;;;;;;;2.60;2.50;;;4.50;99.90;;;;;;5053047;28;20215;-76
2022/12/11 03:50:14;;;;;;;2.65;2.55;;;4.50;99.90;;;;;;5051566;28;20253;-77
2022/12/11 03:52:43;;;;;;;2.40;2.30;;;4.40;99.90;;;;;;5049350;28;20284;-77
2022/12/11 03:55:14;;;;;;;2.40;2.30;;;4.40;99.90;;;;;;5054202;28;20210;-77
2022/12/11 03:57:41;;;;;;;2.88;2.78;;;4.40;99.90;;;;;;5049869;28;20226;-77
2022/12/11 04:00:11;;;;;;;2.83;2.72;;;4.40;99.90;;;;;;5043020;28;20227;-75
2022/12/11 04:02:39;;;;;;;2.88;2.65;;;4.50;99.90;;;;;;5051108;28;20219;-76
2022/12/11 04:05:08;;;;;;;2.80;2.70;;;4.40;99.90;;;;;;5051206;28;20191;-77
2022/12/11 04:07:36;;;;;;;2.53;2.42;;;4.30;99.90;;;;;;5050164;28;20245;-75
2022/12/11 04:10:04;;;;;;;3.25;2.95;;;4.30;99.90;;;;;;5044121;28;20699;-75
2022/12/11 04:12:32;;;;;;;3.05;2.85;;;4.20;99.90;;;;;;5044653;28;20659;-75
2022/12/11 04:15:01;;;;;;;2.72;2.63;;;4.10;99.90;;;;;;5032602;28;20195;-77
2022/12/11 04:25:44;;;;;;;2.95;2.85;;;3.90;99.90;;;;;;5048252;28;20227;-77
2022/12/11 04:28:11;;;;;;;2.90;2.80;;;3.80;99.90;;;;;;5053489;28;20613;-77
2022/12/11 04:30:38;;;;;;;2.70;2.60;;;3.80;99.90;;;;;;5051312;28;20229;-77
2022/12/11 04:33:06;;;;;;;3.10;3.00;;;3.80;99.90;;;;;;5035004;28;20205;-77
2022/12/11 04:35:34;;;;;;;3.00;2.90;;;3.90;99.90;;;;;;5046532;28;20209;-75
2022/12/11 04:38:01;;;;;;;2.90;2.80;;;3.90;99.90;;;;;;5029316;28;20218;-76
2022/12/11 04:40:29;;;;;;;3.03;2.92;;;3.90;99.90;;;;;;5049336;28;20234;-75
2022/12/11 04:42:57;;;;;;;2.85;2.75;;;3.90;99.90;;;;;;5047587;28;20194;-77
2022/12/11 04:45:24;;;;;;;3.22;3.05;;;4.00;99.90;;;;;;5048737;28;20199;-74
2022/12/11 04:47:51;;;;;;;2.90;2.80;;;4.00;99.90;;;;;;5057088;28;20575;-75
2022/12/11 04:50:19;;;;;;;2.92;2.83;;;4.00;99.90;;;;;;5035158;28;20729;-77
2022/12/11 04:52:47;;;;;;;3.10;3.00;;;4.00;99.90;;;;;;5051418;28;20231;-74
2022/12/11 04:55:15;;;;;;;2.85;2.75;;;4.00;99.90;;;;;;5051641;28;20563;-77
2022/12/11 04:57:42;;;;;;;2.67;2.58;;;4.00;99.90;;;;;;5051139;28;20223;-77
2022/12/11 05:00:12;;;;;;;2.97;2.88;;;4.10;99.90;;;;;;5052994;28;20459;-77
2022/12/11 05:02:40;;;;;;;2.85;2.75;;;4.10;99.90;;;;;;5052003;28;20226;-77
2022/12/11 05:05:10;;;;;;;2.72;2.63;;;4.10;99.90;;;;;;5051362;28;20206;-77
2022/12/11 05:07:39;;;;;;;3.05;2.95;;;4.10;99.90;;;;;;5053773;28;20207;-77
2022/12/11 05:10:10;;;;;;;2.53;2.42;;;4.10;99.90;;;;;;5052562;28;20215;-77
2022/12/11 05:12:37;;;;;;;2.97;2.88;;;4.10;99.90;;;;;;5053576;28;20238;-77
2022/12/11 05:15:05;;;;;;;3.00;2.90;;;4.10;99.90;;;;;;5048351;28;20272;-77
2022/12/11 05:17:32;;;;;;;2.80;2.70;;;4.10;99.90;;;;;;5050770;28;20241;-77
2022/12/11 05:20:00;;;;;;;2.90;2.80;;;4.20;99.90;;;;;;5052855;28;20219;-76
2022/12/11 05:22:27;;;;;;;3.10;3.00;;;4.10;99.90;;;;;;5049292;28;20257;-77
2022/12/11 05:24:55;;;;;;;3.05;2.95;;;4.10;99.90;;;;;;5054370;28;20195;-77
2022/12/11 05:27:24;;;;;;;2.65;2.55;;;4.10;99.90;;;;;;5053710;28;20208;-76
2022/12/11 05:29:51;;;;;;;3.05;2.95;;;4.10;99.90;;;;;;5034428;28;20227;-77
2022/12/11 05:32:19;;;;;;;3.05;2.95;;;4.10;99.90;;;;;;5053484;28;20466;-77
2022/12/11 05:34:47;;;;;;;3.17;3.08;;;4.10;99.90;;;;;;5053007;28;20215;-77
2022/12/11 05:37:14;;;;;;;3.50;3.35;;;4.20;99.90;;;;;;5032981;28;20223;-77
2022/12/11 05:39:42;;;;;;;2.83;2.72;;;4.20;99.90;;;;;;5051388;28;20244;-76
2022/12/11 05:42:10;;;;;;;3.10;3.00;;;4.20;99.90;;;;;;5049494;28;20723;-77
2022/12/11 05:44:39;;;;;;;3.00;2.90;;;4.20;99.90;;;;;;5045291;28;20203;-77
2022/12/11 05:47:06;;;;;;;3.28;3.15;;;4.20;99.90;;;;;;5053107;28;20561;-76
2022/12/11 05:49:33;;;;;;;3.30;3.17;;;4.20;99.90;;;;;;5047553;28;20241;-76
2022/12/11 05:52:01;;;;;;;2.95;2.85;;;4.20;99.90;;;;;;5027534;28;20226;-75
2022/12/11 05:54:28;;;;;;;2.90;2.80;;;4.30;99.90;;;;;;5046805;28;20224;-76
2022/12/11 05:56:56;;;;;;;3.30;3.10;;;4.30;99.90;;;;;;5043750;28;20222;-77
2022/12/11 05:59:23;;;;;;;3.53;3.35;;;4.20;99.90;;;;;;5047708;28;20211;-76
2022/12/11 06:01:52;;;;;;;3.50;3.30;;;4.20;99.90;;;;;;5048533;28;20603;-77
2022/12/11 06:04:19;;;;;;;3.13;3.03;;;4.20;99.90;;;;;;5032340;28;20351;-77
2022/12/11 06:06:46;;;;;;;3.40;3.30;;;4.20;99.90;;;;;;5054248;28;20729;-77
2022/12/11 06:09:15;;;;;;;3.22;3.03;;;4.20;99.90;;;;;;5051280;28;20282;-77
2022/12/11 06:11:43;;;;;;;3.13;3.03;;;4.20;99.90;;;;;;5052913;28;20222;-77
2022/12/11 06:14:12;;;;;;;3.03;2.92;;;4.20;99.90;;;;;;5046507;28;20199;-76
2022/12/11 06:16:40;;;;;;;3.50;3.30;;;4.20;99.90;;;;;;5046723;28;20261;-76
2022/12/11 06:19:14;;;;;;;3.20;3.10;;;4.20;99.90;;;;;;5050982;28;20194;-79
2022/12/11 06:21:42;;;;;;;3.30;3.10;;;4.20;99.90;;;;;;5050730;28;20287;-76
2022/12/11 06:24:11;;;;;;;3.33;3.17;;;4.20;99.90;;;;;;5046024;28;20237;-76
2022/12/11 06:26:38;;;;;;;2.90;2.80;;;4.20;99.90;;;;;;5048383;28;20211;-76
2022/12/11 06:29:06;;;;;;;3.60;3.40;;;4.20;99.90;;;;;;5052917;28;20199;-79
2022/12/11 06:31:33;;;;;;;3.10;3.00;;;4.20;99.90;;;;;;5054460;28;20222;-78
2022/12/11 06:34:01;;;;;;;2.90;2.80;;;4.20;99.90;;;;;;5055435;28;20206;-78
2022/12/11 06:36:30;;;;;;;3.20;3.10;;;4.20;99.90;;;;;;5054308;28;20221;-77
2022/12/11 06:38:57;;;;;;;3.30;3.20;;;4.20;99.90;;;;;;5053065;28;20206;-78
2022/12/11 06:41:24;;;;;;;3.50;3.30;;;4.20;99.90;;;;;;5052490;28;20219;-77
2022/12/11 06:43:51;;;;;;;2.97;2.83;;;4.20;99.90;;;;;;5048922;28;20199;-77
2022/12/11 06:46:21;;;;;;;3.38;3.28;;;4.20;99.90;;;;;;5047752;28;20226;-76
2022/12/11 06:48:50;;;;;;;3.47;3.28;;;4.10;99.90;;;;;;5051784;28;20210;-76
2022/12/11 06:51:19;;;;;;;3.15;3.05;;;4.10;99.90;;;;;;5046694;28;20246;-77
2022/12/11 06:53:52;;;;;;;3.25;3.15;;;4.10;99.90;;;;;;5055710;28;20195;-77
2022/12/11 06:56:20;;;;;;;3.50;3.30;;;4.10;99.90;;;;;;5051157;28;20223;-77
2022/12/11 06:58:47;;;;;;;2.95;2.85;;;4.10;99.90;;;;;;5045668;28;20264;-79
2022/12/11 07:01:17;;;;;;;3.50;3.30;;;4.10;99.90;;;;;;5046393;28;20223;-77
2022/12/11 07:03:44;;;;;;;3.33;3.22;;;4.10;99.90;;;;;;5047120;28;20202;-77
2022/12/11 07:06:12;;;;;;;4.03;3.72;;;4.10;99.90;;;;;;5027806;28;20237;-77
2022/12/11 07:08:40;;;;;;;4.07;3.78;;;4.10;99.90;;;;;;5029967;28;20203;-77
2022/12/11 07:11:11;;;;;;;4.32;4.03;;;4.10;99.90;;;;;;5027960;28;20219;-77
2022/12/11 07:13:40;;;;;;;3.78;3.58;;;4.10;99.90;;;;;;5047034;28;21054;-77
2022/12/11 07:16:09;;;;;;;4.18;3.97;;;4.10;99.90;;;;;;5043392;28;20214;-79
2022/12/11 07:18:38;;;;;;;3.80;3.60;;;4.10;99.90;;;;;;5045607;28;20219;-77
2022/12/11 07:21:06;;;;;;;4.13;3.80;;;4.10;99.90;;;;;;5026715;28;20251;-77
2022/12/11 07:23:35;;;;;;;3.50;3.30;;;4.10;99.90;;;;;;5045305;28;20195;-77
2022/12/11 07:26:05;;;;;;;3.80;3.60;;;4.20;99.90;;;;;;5046213;28;20236;-76
2022/12/11 07:28:35;;;;;;;3.80;3.60;;;4.10;99.90;;;;;;5029284;28;20244;-77
2022/12/11 07:31:05;;;;;;;3.55;3.35;;;4.20;99.90;;;;;;5044750;28;20252;-75
2022/12/11 07:33:33;;;;;;;3.53;3.35;;;4.20;99.90;;;;;;5046006;28;20273;-77
2022/12/11 07:36:02;;;;;;;3.92;3.72;;;4.20;99.90;;;;;;5049385;28;20223;-77
2022/12/11 07:38:30;;;;;;;4.13;3.92;;;4.20;99.90;;;;;;5028238;28;20264;-77
2022/12/11 07:41:00;;;;;;;3.88;3.67;;;4.20;99.90;;;;;;5051076;28;20222;-77
2022/12/11 07:43:28;;;;;;;3.85;3.65;;;4.20;99.90;;;;;;5053480;28;20192;-77
2022/12/11 07:46:02;;;;;;;3.70;3.50;;;4.20;99.90;;;;;;5052174;28;20707;-77
2022/12/11 07:48:31;;;;;;;3.72;3.53;;;4.20;99.90;;;;;;5055735;28;20264;-78
2022/12/11 07:51:08;;;;;;;3.97;3.78;;;4.20;99.90;;;;;;5049794;28;20223;-77
2022/12/11 07:53:36;;;;;;;3.67;3.47;;;4.20;99.90;;;;;;5052385;28;20195;-78
2022/12/11 07:56:03;;;;;;;3.80;3.60;;;4.20;99.90;;;;;;5052068;28;20222;-77
2022/12/11 07:58:31;;;;;;;4.57;4.28;;;4.20;99.90;;;;;;5050958;28;20230;-78
2022/12/11 08:01:00;;;;;;;4.38;4.18;;;4.20;99.90;;;;;;5050127;28;20225;-76
2022/12/11 08:03:28;;;;;;;4.30;4.00;;;4.20;99.90;;;;;;5049998;28;20911;-77
2022/12/11 08:05:55;;;;;;;4.57;4.28;;;4.20;99.90;;;;;;5032050;28;20219;-77
2022/12/11 08:08:22;;;;;;;4.93;4.63;;;4.10;99.90;;;;;;5047108;28;20195;-77
2022/12/11 08:10:50;;;;;;;4.63;4.32;;;4.10;99.90;;;;;;5047292;28;20229;-77
2022/12/11 08:13:18;;;;;;;4.53;4.22;;;4.10;99.90;;;;;;5034889;28;20194;-76
2022/12/11 08:15:46;;;;;;;3.80;3.58;;;4.10;99.90;;;;;;5052544;28;20222;-77
2022/12/11 08:18:14;;;;;;;4.50;4.20;;;4.10;99.90;;;;;;5049809;28;20226;-77
2022/12/11 08:20:41;;;;;;;4.35;4.05;;;4.10;99.90;;;;;;5048387;28;20231;-77
2022/12/11 08:23:09;;;;;;;4.53;4.25;;;4.10;99.90;;;;;;5051121;28;20191;-78
2022/12/11 08:25:36;;;;;;;4.50;4.07;;;4.10;99.90;;;;;;5055197;28;20195;-78
2022/12/11 08:28:04;;;;;;;4.10;3.90;;;4.10;99.90;;;;;;5053686;28;20195;-77
2022/12/11 08:30:32;;;;;;;4.70;4.20;;;4.20;99.90;;;;;;5033808;28;20230;-77
2022/12/11 08:32:59;;;;;;;4.57;4.28;;;4.20;99.90;;;;;;5056888;28;20199;-78
2022/12/11 08:35:32;;;;;;;4.70;4.40;;;4.20;99.90;;;;;;5047428;28;20245;-78
2022/12/11 08:38:00;;;;;;;4.55;4.25;;;4.20;99.90;;;;;;5051483;28;20211;-78
2022/12/11 08:40:27;;;;;;;4.20;3.90;;;4.20;99.90;;;;;;5047400;28;20230;-78
2022/12/11 08:42:55;;;;;;;4.57;4.30;;;4.20;99.90;;;;;;5030135;28;20203;-78
2022/12/11 08:45:22;;;;;;;4.93;4.53;;;4.20;99.90;;;;;;5054451;28;20199;-78
2022/12/11 08:47:50;;;;;;;5.15;4.82;;;4.20;99.90;;;;;;5032984;28;20210;-78
2022/12/11 08:50:17;;;;;;;5.60;5.10;;;4.20;99.90;;;;;;5035305;28;20223;-78
2022/12/11 08:52:46;;;;;;;5.10;4.70;;;4.20;99.90;;;;;;5049227;28;20224;-78
2022/12/11 08:55:14;;;;;;;5.13;4.75;;;4.20;99.90;;;;;;5033213;28;20202;-77
2022/12/11 08:57:41;;;;;;;4.22;3.92;;;4.30;99.90;;;;;;5053139;28;20230;-76
2022/12/11 09:00:14;;;;;;;4.88;4.57;;;4.30;99.90;;;;;;5050385;28;20893;-76
2022/12/11 09:02:41;;;;;;;5.25;4.82;;;4.40;99.90;;;;;;5054692;28;20226;-76
2022/12/11 09:05:09;;;;;;;4.90;4.57;;;4.40;99.90;;;;;;5027641;28;20558;-76
2022/12/11 09:07:38;;;;;;;4.70;4.40;;;4.50;99.90;;;;;;5047746;28;20240;-76
2022/12/11 09:10:09;;;;;;;4.65;4.35;;;4.60;99.90;;;;;;5046450;28;20818;-77
2022/12/11 09:12:37;;;;;;;5.85;5.35;;;4.70;99.90;;;;;;5051163;28;20218;-77
2022/12/11 09:15:05;;;;;;;5.05;4.65;;;4.60;99.90;;;;;;5026895;28;20687;-76
2022/12/11 09:17:35;;;;;;;5.20;4.80;;;4.60;99.90;;;;;;5054835;28;20233;-78
2022/12/11 09:20:02;;;;;;;5.13;4.82;;;4.60;99.90;;;;;;5050121;28;20219;-78
2022/12/11 09:22:32;;;;;;;4.82;4.47;;;4.50;99.90;;;;;;5030580;28;20215;-78
2022/12/11 09:24:59;;;;;;;4.55;4.25;;;4.50;99.90;;;;;;5047733;28;20190;-78
2022/12/11 09:27:28;;;;;;;4.80;4.50;;;4.50;99.90;;;;;;5048680;28;20218;-78
2022/12/11 09:29:55;;;;;;;5.07;4.78;;;4.50;99.90;;;;;;5045552;28;20211;-77
2022/12/11 09:32:22;;;;;;;4.93;4.45;;;4.50;99.90;;;;;;5046921;28;20222;-79
2022/12/11 09:34:50;;;;;;;4.72;4.43;;;4.50;99.90;;;;;;5033704;28;20190;-78
2022/12/11 09:37:18;;;;;;;5.25;4.85;;;4.50;99.90;;;;;;5055160;28;20235;-78
2022/12/11 09:39:45;;;;;;;4.57;4.28;;;4.50;99.90;;;;;;5050178;28;20210;-78
2022/12/11 09:42:18;;;;;;;4.45;4.15;;;4.50;99.90;;;;;;5049734;28;20224;-77
2022/12/11 09:44:51;;;;;;;4.68;4.38;;;4.60;99.90;;;;;;5057583;28;20199;-78
2022/12/11 09:47:24;;;;;;;4.60;4.30;;;4.60;99.90;;;;;;5057234;28;20731;-78
2022/12/11 09:49:57;;;;;;;5.38;5.05;;;4.60;99.90;;;;;;5054151;28;20277;-78
2022/12/11 09:52:34;;;;;;;5.38;4.88;;;4.50;99.90;;;;;;5055270;28;20291;-77
2022/12/11 09:55:10;;;;;;;5.10;4.80;;;4.50;99.90;;;;;;5053797;28;20205;-78
2022/12/11 09:57:50;;;;;;;5.05;4.75;;;4.50;99.90;;;;;;5037422;28;20230;-77
2022/12/11 10:00:26;;;;;;;4.70;4.40;;;4.50;99.90;;;;;;5054424;28;20691;-77
2022/12/11 10:03:23;;;;;;;5.07;4.68;;;4.40;99.90;;;;;;5057658;28;20581;-78
2022/12/11 10:05:55;;;;;;;4.95;4.60;;;4.40;99.90;;;;;;5053251;28;20226;-78
2022/12/11 10:08:29;;;;;;;5.00;4.70;;;4.40;99.90;;;;;;5052797;28;20195;-78
2022/12/11 10:11:06;;;;;;;5.03;4.63;;;4.30;99.90;;;;;;5054370;28;20226;-77
2022/12/11 10:13:42;;;;;;;5.00;4.60;;;4.40;99.90;;;;;;5051703;28;20199;-78
2022/12/11 10:16:21;;;;;;;5.15;4.85;;;4.30;99.90;;;;;;5048734;28;20214;-78
2022/12/11 10:18:49;;;;;;;6.03;5.53;;;4.30;99.90;;;;;;5048637;28;20203;-76
2022/12/11 10:21:18;;;;;;;6.05;5.45;;;4.30;99.90;;;;;;5049586;28;20288;-78
2022/12/11 10:23:52;;;;;;;5.38;4.97;;;4.30;99.90;;;;;;5026943;28;20669;-75
2022/12/11 10:26:22;;;;;;;5.30;4.90;;;4.30;99.90;;;;;;5050940;28;20218;-77
2022/12/11 10:28:49;;;;;;;5.10;4.80;;;4.30;99.90;;;;;;5031034;28;20870;-78
2022/12/11 10:31:19;;;;;;;5.45;5.07;;;4.30;99.90;;;;;;5031136;28;20227;-76
2022/12/11 10:33:56;;;;;;;5.45;5.05;;;4.30;99.90;;;;;;5068044;22;20198;-77
2022/12/11 10:36:28;;;;;;;4.78;4.47;;;4.30;99.90;;;;;;5025959;28;20246;-81
2022/12/11 10:38:56;;;;;;;4.55;4.25;;;4.30;99.90;;;;;;5023912;28;20298;-76
2022/12/11 10:41:33;;;;;;;5.13;4.72;;;4.30;99.90;;;;;;5009836;28;20216;-80
2022/12/11 10:44:00;;;;;;;4.43;4.13;;;4.30;99.90;;;;;;5005225;28;20204;-75
2022/12/11 10:46:31;;;;;;;5.05;4.75;;;4.40;99.90;;;;;;5010566;28;20730;-77
2022/12/11 10:49:00;;;;;;;5.07;4.68;;;4.40;99.90;;;;;;5007281;28;20216;-73
2022/12/11 10:51:36;;;;;;;5.32;4.93;;;4.40;99.90;;;;;;5008091;28;20350;-78
2022/12/11 10:54:09;;;;;;;6.20;5.70;;;4.40;99.90;;;;;;5003844;28;20207;-78
2022/12/11 10:56:38;;;;;;;5.38;4.97;;;4.40;99.90;;;;;;5005811;28;20286;-75
2022/12/11 10:59:05;;;;;;;5.18;4.85;;;4.50;99.90;;;;;;5007361;28;20228;-75
2022/12/11 11:01:34;;;;;;;4.95;4.45;;;4.50;99.90;;;;;;5007484;28;20227;-81
2022/12/11 11:04:05;;;;;;;4.55;4.25;;;4.50;99.90;;;;;;5004430;28;20207;-76
2022/12/11 11:06:33;;;;;;;4.78;4.43;;;4.50;99.90;;;;;;5006491;28;20219;-75
2022/12/11 11:09:02;;;;;;;4.97;4.65;;;4.60;99.90;;;;;;5008918;28;20220;-73
2022/12/11 11:11:31;;;;;;;4.63;4.32;;;4.60;99.90;;;;;;5005217;28;20702;-77
2022/12/11 11:14:16;;;;;;;4.60;4.30;;;4.70;99.90;;;;;;5005250;28;20196;-76
2022/12/11 11:16:46;;;;;;;5.60;5.10;;;4.70;99.90;;;;;;5006496;28;20624;-74
2022/12/11 11:19:26;;;;;;;5.20;4.80;;;4.80;99.90;;;;;;5012169;28;20306;-77
2022/12/11 11:21:57;;;;;;;5.18;4.80;;;4.80;99.90;;;;;;5005714;28;20227;-79
2022/12/11 11:24:34;;;;;;;4.43;4.13;;;4.80;99.90;;;;;;5011474;28;20196;-73
2022/12/11 11:27:02;;;;;;;4.40;4.10;;;4.80;99.90;;;;;;5010569;28;20215;-77
2022/12/11 11:29:32;;;;;;;4.70;4.40;;;4.70;99.90;;;;;;5013469;28;20254;-77
2022/12/11 11:32:15;;;;;;;5.07;4.78;;;4.70;99.90;;;;;;5008814;28;20604;-82
2022/12/11 11:34:42;;;;;;;4.78;4.47;;;4.70;99.90;;;;;;5012340;28;20208;-78
2022/12/11 11:37:23;;;;;;;5.20;4.80;;;4.60;99.90;;;;;;5011434;28;20220;-81
2022/12/11 11:39:55;;;;;;;6.13;4.90;;;4.60;99.90;;;;;;5010031;28;20259;-79
2022/12/11 11:42:33;;;;;;;5.13;4.75;;;4.60;99.90;;;;;;5007621;28;20223;-76
2022/12/11 11:45:05;;;;;;;7.72;4.90;;;4.60;99.90;;;;;;5006592;28;20212;-79
2022/12/11 11:47:40;;;;;;;5.47;4.97;;;4.60;99.90;;;;;;5006583;28;20259;-76
2022/12/11 11:50:15;;;;;;;5.07;4.68;;;4.70;99.90;;;;;;5010441;28;20334;-76
2022/12/11 11:52:50;;;;;;;5.35;4.95;;;4.70;99.90;;;;;;5010056;28;20212;-80
2022/12/11 11:55:21;;;;;;;5.03;4.68;;;4.80;99.90;;;;;;5005874;28;20207;-73
2022/12/11 11:57:54;;;;;;;4.90;4.60;;;4.80;99.90;;;;;;5007249;28;20216;-77
2022/12/11 12:00:23;;;;;;;8.95;8.05;;;4.80;99.90;;;;;;5012138;28;20239;-78
2022/12/11 12:02:54;;;;;;;6.07;5.57;;;4.80;99.90;;;;;;5011880;28;20213;-74
2022/12/11 12:05:27;;;;;;;8.32;5.55;;;4.80;99.90;;;;;;5009337;28;20820;-74
2022/12/11 12:08:09;;;;;;;4.75;4.45;;;4.70;99.90;;;;;;5013372;28;20196;-78
2022/12/11 12:10:46;;;;;;;4.75;4.45;;;4.70;99.90;;;;;;5011207;28;20217;-71
2022/12/11 12:13:25;;;;;;;4.90;4.53;;;4.70;99.90;;;;;;5005535;28;20200;-79
2022/12/11 12:15:56;;;;;;;4.45;3.97;;;4.70;99.90;;;;;;5008050;28;20216;-74
2022/12/11 12:18:33;;;;;;;4.60;4.30;;;4.70;99.90;;;;;;5007776;28;20201;-76
2022/12/11 12:21:09;;;;;;;4.93;4.63;;;4.80;99.90;;;;;;5011443;28;20212;-76
2022/12/11 12:23:53;;;;;;;5.20;4.80;;;4.90;99.90;;;;;;5011151;28;20203;-72
2022/12/11 12:26:26;;;;;;;5.10;4.78;;;5.00;99.90;;;;;;5008893;28;20224;-73
2022/12/11 12:29:05;;;;;;;4.60;4.30;;;5.10;99.90;;;;;;5014677;28;20215;-80
2022/12/11 12:31:45;;;;;;;6.13;5.72;;;5.20;99.90;;;;;;5012557;28;20216;-78
2022/12/11 12:34:23;;;;;;;5.30;4.90;;;5.20;99.90;;;;;;5011280;28;20204;-78
2022/12/11 12:36:58;;;;;;;4.93;4.57;;;5.20;99.90;;;;;;5013725;28;20236;-73
2022/12/11 12:39:40;;;;;;;4.68;4.38;;;5.20;99.90;;;;;;5012848;28;20219;-79
2022/12/11 12:42:16;;;;;;;5.38;4.95;;;5.20;99.90;;;;;;5009663;28;20717;-75
2022/12/11 12:44:55;;;;;;;5.07;4.68;;;5.20;99.90;;;;;;5011044;28;20203;-79
2022/12/11 12:47:23;;;;;;;4.60;4.20;;;5.10;99.90;;;;;;5013402;28;20224;-75
2022/12/11 12:49:54;;;;;;;4.20;3.90;;;5.10;99.90;;;;;;5013656;28;20255;-75
2022/12/11 12:52:25;;;;;;;5.55;5.05;;;5.10;99.90;;;;;;5014238;28;20765;-80
2022/12/11 12:55:16;;;;;;;4.85;4.50;;;5.00;99.90;;;;;;5021382;28;20207;-73
2022/12/11 12:57:47;;;;;;;4.72;4.43;;;5.00;99.90;;;;;;5013113;28;20278;-79
2022/12/11 13:00:25;;;;;;;5.18;4.78;;;4.90;99.90;;;;;;5016208;28;20230;-73
2022/12/11 13:02:54;;;;;;;4.10;3.80;;;5.00;99.90;;;;;;5018285;28;20224;-76
2022/12/11 13:05:26;;;;;;;4.72;4.43;;;5.00;99.90;;;;;;5019070;28;20200;-78
2022/12/11 13:07:56;;;;;;;5.68;5.20;;;5.10;99.90;;;;;;5016966;28;20193;-75
2022/12/11 13:10:27;;;;;;;5.20;4.80;;;5.20;99.90;;;;;;5014580;28;20239;-76
2022/12/11 13:12:55;;;;;;;4.45;4.05;;;5.40;99.90;;;;;;5019523;28;20203;-72
2022/12/11 13:15:29;;;;;;;4.70;4.40;;;5.50;99.90;;;;;;5019415;28;20192;-72
2022/12/11 13:17:56;;;;;;;5.95;5.45;;;5.50;99.90;;;;;;5013751;28;20246;-76
2022/12/11 13:20:27;;;;;;;4.60;4.30;;;5.50;99.90;;;;;;5019223;28;20217;-72
2022/12/11 13:23:10;;;;;;;4.15;3.88;;;5.60;99.90;;;;;;5019825;28;20196;-78